Time;durP1;ratioP1;P1;durP2;ratioP2;P2;SDS_P1;SDS_P2;PMS_P1;PMS_P2;Temp;Humidity;BMP_temperature;BMP_pressure;BME280_temperature;BME280_humidity;BME280_pressure;Samples;Min_cycle;Max_cycle;Signal;HPM_P1;HPM_P2
2020/12/03 00:00:33;;;;;;;39.88;15.40;;;;;;;-0.51;83.51;98390.00;5055294;28;20094;-70
2020/12/03 00:03:01;;;;;;;38.80;15.38;;;;;;;-0.45;83.50;98386.75;5054045;28;20486;-70
2020/12/03 00:05:28;;;;;;;37.23;14.77;;;;;;;-0.64;83.94;98386.81;5052758;28;20074;-71
2020/12/03 00:07:55;;;;;;;39.92;15.63;;;;;;;-0.62;84.22;98377.72;5046136;28;20772;-71
2020/12/03 00:10:20;;;;;;;40.05;15.50;;;;;;;-0.75;83.95;98366.56;5040883;28;20025;-71
2020/12/03 00:13:01;;;;;;;43.92;16.63;;;;;;;-0.71;84.10;98378.56;5066019;28;20025;-72
2020/12/03 00:15:26;;;;;;;39.08;15.10;;;;;;;-0.72;84.51;98380.41;5061567;28;20032;-72
2020/12/03 00:17:51;;;;;;;35.95;16.15;;;;;;;-0.69;83.97;98371.31;5059883;28;20044;-72
2020/12/03 00:20:18;;;;;;;44.20;15.95;;;;;;;-0.55;83.73;98356.72;5053948;28;20053;-72
2020/12/03 00:22:43;;;;;;;43.90;15.77;;;;;;;-0.65;83.66;98353.28;5046686;28;20029;-71
2020/12/03 00:25:09;;;;;;;40.47;16.40;;;;;;;-0.54;84.17;98355.75;5059473;28;20094;-71
2020/12/03 00:27:35;;;;;;;42.97;15.35;;;;;;;-0.42;83.85;98345.78;5062547;28;20071;-72
2020/12/03 00:30:00;;;;;;;35.63;14.93;;;;;;;-0.53;83.06;98355.59;5059821;28;20025;-71
2020/12/03 00:32:25;;;;;;;40.88;16.40;;;;;;;-0.53;83.43;98354.75;5059099;28;20084;-71
2020/12/03 00:34:51;;;;;;;40.95;16.02;;;;;;;-0.60;83.82;98358.97;5062145;28;20043;-71
2020/12/03 00:37:16;;;;;;;39.40;15.45;;;;;;;-0.64;83.86;98349.63;5059483;28;20021;-72
2020/12/03 00:39:41;;;;;;;40.28;14.95;;;;;;;-0.65;84.49;98347.97;5064554;28;20104;-71
2020/12/03 00:42:06;;;;;;;45.33;16.65;;;;;;;-0.49;84.10;98346.38;5050598;28;20033;-72
2020/12/03 00:44:32;;;;;;;38.28;16.05;;;;;;;-0.68;83.62;98320.69;5062134;28;20438;-72
2020/12/03 00:46:57;;;;;;;38.05;16.10;;;;;;;-0.50;84.01;98338.53;5053255;28;20323;-72
2020/12/03 00:49:22;;;;;;;42.28;16.23;;;;;;;-0.59;84.03;98340.25;5052347;28;20029;-72
2020/12/03 00:51:50;;;;;;;39.05;16.30;;;;;;;-0.72;84.20;98337.91;5053478;28;20483;-72
2020/12/03 00:54:15;;;;;;;37.85;16.75;;;;;;;-0.72;84.39;98337.91;5040608;28;20029;-70
2020/12/03 00:56:41;;;;;;;40.97;15.55;;;;;;;-0.76;84.14;98320.59;5065144;28;20037;-70
2020/12/03 00:59:06;;;;;;;46.50;16.95;;;;;;;-0.47;83.78;98327.63;5043598;28;20023;-70
2020/12/03 01:01:33;;;;;;;42.40;16.00;;;;;;;-0.43;84.02;98320.19;5051317;28;20557;-71
2020/12/03 01:03:58;;;;;;;39.90;15.77;;;;;;;-0.33;84.05;98324.50;5053506;28;20477;-71
2020/12/03 01:06:23;;;;;;;39.45;16.73;;;;;;;-0.42;84.56;98330.66;5051773;28;20314;-72
2020/12/03 01:08:49;;;;;;;41.30;15.98;;;;;;;-0.38;83.53;98325.91;5051688;28;20033;-73
2020/12/03 01:11:18;;;;;;;44.65;16.02;;;;;;;-0.40;83.24;98318.06;5051744;28;20056;-72
2020/12/03 01:13:43;;;;;;;39.75;16.40;;;;;;;-0.45;83.73;98315.88;5035385;28;20104;-72
2020/12/03 01:16:12;;;;;;;43.90;16.63;;;;;;;-0.45;83.56;98317.66;5040048;28;20109;-71
2020/12/03 01:18:38;;;;;;;47.80;18.65;;;;;;;-0.41;83.42;98324.38;5052235;28;20029;-71
2020/12/03 01:21:03;;;;;;;41.25;15.73;;;;;;;-0.46;83.35;98316.00;5052311;28;20086;-70
2020/12/03 01:23:28;;;;;;;42.65;17.20;;;;;;;-0.50;83.62;98307.50;5051164;28;20037;-71
2020/12/03 01:25:53;;;;;;;45.38;17.60;;;;;;;-0.43;83.66;98312.22;5050390;28;20372;-71
2020/12/03 01:28:19;;;;;;;44.92;16.25;;;;;;;-0.60;83.77;98303.19;5050077;28;20017;-71
2020/12/03 01:30:44;;;;;;;46.80;17.27;;;;;;;-0.53;83.62;98294.47;5048257;28;20470;-71
2020/12/03 01:33:09;;;;;;;42.72;16.60;;;;;;;-0.54;84.09;98305.28;5040034;28;20035;-71
2020/12/03 01:35:34;;;;;;;42.83;18.13;;;;;;;-0.45;83.47;98293.75;5049698;28;20024;-70
2020/12/03 01:38:00;;;;;;;45.20;17.63;;;;;;;-0.57;83.86;98284.31;5041438;28;20036;-70
2020/12/03 01:40:26;;;;;;;49.42;18.00;;;;;;;-0.72;85.20;98298.06;5050514;28;20025;-72
2020/12/03 01:42:51;;;;;;;50.28;16.65;;;;;;;-0.62;84.32;98292.72;5052727;28;20029;-72
2020/12/03 01:45:45;;;;;;;41.28;16.70;;;;;;;-0.58;84.71;98285.28;5052250;28;20051;-71
2020/12/03 01:48:49;;;;;;;47.20;18.67;;;;;;;-0.67;84.46;98277.19;5048645;28;20029;-71
2020/12/03 01:51:25;;;;;;;49.85;17.75;;;;;;;-0.70;84.41;98266.03;5052496;28;20063;-71
2020/12/03 01:53:57;;;;;;;45.03;17.00;;;;;;;-0.63;84.59;98264.47;5052417;28;20086;-71
2020/12/03 01:56:54;;;;;;;44.80;17.08;;;;;;;-0.71;85.11;98274.97;5052533;28;20037;-71
2020/12/03 01:59:20;;;;;;;42.05;16.92;;;;;;;-0.67;85.17;98273.72;5050929;28;20028;-71
2020/12/03 02:01:46;;;;;;;46.40;18.27;;;;;;;-0.71;85.01;98273.19;5052155;28;20056;-71
2020/12/03 02:04:11;;;;;;;40.53;17.27;;;;;;;-0.76;84.76;98256.84;5052328;28;20394;-71
2020/12/03 02:06:39;;;;;;;44.10;18.20;;;;;;;-0.73;84.69;98245.09;5044825;28;20038;-71
2020/12/03 02:09:06;;;;;;;45.53;16.70;;;;;;;-0.78;85.27;98250.00;5051300;28;20025;-71
2020/12/03 02:11:33;;;;;;;53.45;17.67;;;;;;;-0.82;85.39;98245.94;5045334;28;20169;-70
2020/12/03 02:14:01;;;;;;;45.85;18.00;;;;;;;-0.79;85.59;98238.50;5048748;28;20045;-71
2020/12/03 02:16:30;;;;;;;42.47;16.20;;;;;;;-0.86;85.78;98224.16;5032269;28;20451;-71
2020/12/03 02:18:56;;;;;;;;;;;;;;;-0.74;85.39;98238.91;5051796;28;20566;-71
2020/12/03 02:21:21;;;;;;;41.50;16.45;;;;;;;-0.78;85.65;98237.56;5050365;28;19940;-71
2020/12/03 02:23:46;;;;;;;46.67;18.25;;;;;;;-0.68;85.47;98235.69;5037856;28;20041;-72
2020/12/03 02:26:13;;;;;;;49.58;18.10;;;;;;;-0.70;84.78;98220.88;5037054;28;20083;-72
2020/12/03 02:28:39;;;;;;;45.75;17.20;;;;;;;-0.61;84.99;98229.78;5047782;28;20037;-72
2020/12/03 02:31:04;;;;;;;44.17;17.70;;;;;;;-0.65;84.70;98223.13;5051596;28;20095;-72
2020/12/03 02:33:30;;;;;;;48.22;17.67;;;;;;;-0.57;84.84;98218.72;5049808;28;20034;-71
2020/12/03 02:35:55;;;;;;;41.67;16.55;;;;;;;-0.54;84.47;98209.63;5049945;28;20033;-71
2020/12/03 02:38:21;;;;;;;45.92;18.20;;;;;;;-0.58;83.61;98211.72;5048492;28;20032;-70
2020/12/03 02:40:46;;;;;;;43.45;16.55;;;;;;;-0.61;84.39;98214.69;5049051;28;20039;-72
2020/12/03 02:43:12;;;;;;;48.10;18.48;;;;;;;-0.67;84.09;98210.78;5051254;28;20390;-72
2020/12/03 02:45:37;;;;;;;41.80;17.65;;;;;;;-0.72;84.21;98212.22;5048505;28;20486;-73
2020/12/03 02:48:02;;;;;;;47.00;18.10;;;;;;;-0.65;84.16;98210.66;5050992;28;20534;-72
2020/12/03 02:50:28;;;;;;;43.38;17.42;;;;;;;-0.78;84.39;98218.97;5048513;28;20033;-71
2020/12/03 02:52:53;;;;;;;45.83;17.17;;;;;;;-0.82;84.88;98217.56;5067934;28;20047;-71
2020/12/03 02:55:19;;;;;;;45.55;17.77;;;;;;;-0.85;85.16;98209.06;5050956;28;20032;-72
2020/12/03 02:57:44;;;;;;;48.95;18.40;;;;;;;-0.84;85.01;98219.53;5049771;28;20033;-72
2020/12/03 03:00:09;;;;;;;48.22;18.60;;;;;;;-0.89;84.96;98214.66;5042770;28;20025;-72
2020/12/03 03:02:35;;;;;;;49.97;19.42;;;;;;;-0.95;85.31;98195.81;5036085;28;20398;-72
2020/12/03 03:05:00;;;;;;;52.55;18.52;;;;;;;-0.88;84.77;98196.91;5049407;28;20040;-72
2020/12/03 03:07:26;;;;;;;42.05;17.60;;;;;;;-0.76;85.00;98211.69;5050567;28;20025;-72
2020/12/03 03:09:51;;;;;;;47.60;17.83;;;;;;;-0.75;84.78;98215.19;5049260;28;20068;-72
2020/12/03 03:12:16;;;;;;;46.67;17.00;;;;;;;-0.77;85.10;98209.16;5054239;28;20107;-72
2020/12/03 03:14:42;;;;;;;47.08;17.10;;;;;;;-0.82;85.12;98195.50;5043587;28;20044;-72
2020/12/03 03:17:07;;;;;;;48.08;18.10;;;;;;;-0.72;85.48;98199.78;5045918;28;20036;-72
2020/12/03 03:19:32;;;;;;;45.65;17.98;;;;;;;-0.74;85.06;98206.22;5049941;28;20120;-71
2020/12/03 03:21:58;;;;;;;43.38;16.15;;;;;;;-0.73;85.13;98199.94;5049478;28;20084;-71
2020/12/03 03:24:23;;;;;;;42.90;17.23;;;;;;;-0.62;84.97;98209.53;5055331;28;20471;-71
2020/12/03 03:26:49;;;;;;;43.30;16.70;;;;;;;-0.65;85.05;98196.53;5053183;28;20028;-71
2020/12/03 03:29:14;;;;;;;43.60;17.05;;;;;;;-0.67;84.69;98202.00;5053291;28;20133;-70
2020/12/03 03:31:39;;;;;;;39.97;16.30;;;;;;;-0.70;85.45;98208.44;5049904;28;20494;-71
2020/12/03 03:34:05;;;;;;;46.28;19.02;;;;;;;-0.63;85.37;98202.53;5054849;28;20067;-72
2020/12/03 03:36:32;;;;;;;48.40;18.08;;;;;;;-0.73;85.35;98200.78;5053324;28;20033;-72
2020/12/03 03:38:57;;;;;;;47.90;18.02;;;;;;;-0.70;85.32;98204.94;5054816;28;20466;-72
2020/12/03 03:41:23;;;;;;;47.80;17.75;;;;;;;-0.73;85.72;98200.78;5040679;28;20033;-72
2020/12/03 03:43:49;;;;;;;41.90;18.33;;;;;;;-0.73;85.46;98200.78;5053980;28;20028;-72
2020/12/03 03:46:15;;;;;;;47.35;18.33;;;;;;;-0.65;85.43;98200.03;5053057;28;20533;-72
2020/12/03 03:48:41;;;;;;;49.92;17.75;;;;;;;-0.60;85.21;98194.25;5047578;28;20404;-73
2020/12/03 03:51:06;;;;;;;47.72;18.58;;;;;;;-0.68;85.75;98193.19;5052842;28;20029;-72
2020/12/03 03:53:32;;;;;;;44.72;17.55;;;;;;;-0.61;86.15;98193.44;5054721;28;20036;-72
2020/12/03 03:55:57;;;;;;;49.22;16.80;;;;;;;-0.52;85.51;98186.41;5053865;28;20057;-72
2020/12/03 03:58:23;;;;;;;50.13;17.02;;;;;;;-0.54;85.70;98183.88;5053517;28;20040;-72
2020/12/03 04:00:49;;;;;;;41.85;17.33;;;;;;;-0.66;85.73;98190.38;5053024;28;20354;-72
2020/12/03 04:03:18;;;;;;;48.03;15.80;;;;;;;-0.55;85.56;98182.22;5055077;28;20068;-72
2020/12/03 04:05:46;;;;;;;42.22;17.50;;;;;;;-0.57;86.13;98178.88;5044852;28;20056;-72
2020/12/03 04:08:12;;;;;;;47.80;18.40;;;;;;;-0.46;85.49;98177.84;5049683;28;20029;-71
2020/12/03 04:10:37;;;;;;;47.90;17.77;;;;;;;-0.53;85.47;98174.09;5045331;28;20029;-72
2020/12/03 04:13:03;;;;;;;40.63;15.98;;;;;;;-0.60;85.79;98187.16;5064613;28;20082;-70
2020/12/03 04:15:28;;;;;;;46.20;17.77;;;;;;;-0.58;86.75;98184.31;5066167;28;20025;-72
2020/12/03 04:17:53;;;;;;;39.55;16.80;;;;;;;-0.59;85.89;98174.69;5052572;28;20162;-72
2020/12/03 04:20:19;;;;;;;46.47;17.05;;;;;;;-0.50;85.49;98171.13;5053231;28;20043;-72
2020/12/03 04:22:44;;;;;;;44.83;17.20;;;;;;;-0.54;85.36;98169.78;5053698;28;20395;-72
2020/12/03 04:25:10;;;;;;;42.58;17.80;;;;;;;-0.50;85.57;98156.06;5052808;28;20029;-73
2020/12/03 04:27:35;;;;;;;46.38;17.15;;;;;;;-0.48;85.09;98154.06;5053363;28;20457;-72
2020/12/03 04:30:02;;;;;;;44.25;16.73;;;;;;;-0.54;85.76;98152.00;5051360;28;20036;-72
2020/12/03 04:32:27;;;;;;;45.47;17.17;;;;;;;-0.56;85.56;98148.66;5051210;28;20024;-72
2020/12/03 04:34:53;;;;;;;46.35;16.67;;;;;;;-0.59;85.59;98153.44;5053177;28;20091;-72
2020/12/03 04:37:18;;;;;;;40.20;16.27;;;;;;;-0.73;85.31;98128.22;5076477;22;20041;-71
2020/12/03 04:39:43;;;;;;;43.97;17.98;;;;;;;-0.70;85.63;98144.69;5052816;28;20055;-68
2020/12/03 04:42:22;;;;;;;45.63;17.70;;;;;;;-0.56;85.65;98153.13;5054051;28;20478;-69
2020/12/03 04:44:50;;;;;;;37.88;13.90;;;;;;;-0.60;85.48;98143.78;5054516;28;20033;-69
2020/12/03 04:47:30;;;;;;;49.42;17.45;;;;;;;-0.57;85.92;98156.78;5053354;28;20036;-69
2020/12/03 04:50:07;;;;;;;43.78;17.48;;;;;;;-0.55;85.51;98153.00;5032517;28;20437;-69
2020/12/03 04:52:50;;;;;;;43.75;16.60;;;;;;;-0.54;85.37;98162.63;5040634;28;20379;-69
2020/12/03 04:55:32;;;;;;;42.85;16.27;;;;;;;-0.71;85.92;98156.31;5055664;28;20429;-69
2020/12/03 04:58:09;;;;;;;49.30;17.83;;;;;;;-0.53;85.86;98147.53;5049911;28;20036;-69
2020/12/03 05:00:34;;;;;;;46.83;17.10;;;;;;;-0.50;85.99;98142.75;5045511;28;20021;-70
2020/12/03 05:03:31;;;;;;;44.92;15.90;;;;;;;-0.42;85.53;98136.66;5037930;28;20041;-69
2020/12/03 05:06:34;;;;;;;45.80;16.48;;;;;;;-0.39;85.23;98133.75;5035334;28;20029;-69
2020/12/03 05:08:59;;;;;;;43.17;16.80;;;;;;;-0.43;85.43;98129.69;5043765;28;20026;-69
2020/12/03 05:11:33;;;;;;;47.13;17.00;;;;;;;-0.57;85.57;98136.38;5035699;28;20390;-70
2020/12/03 05:14:05;;;;;;;45.25;16.88;;;;;;;-0.50;86.15;98132.13;5037336;28;20046;-69
2020/12/03 05:16:46;;;;;;;45.53;17.20;;;;;;;-0.53;85.59;98134.22;5015064;28;20030;-69
2020/12/03 05:19:37;;;;;;;41.95;15.90;;;;;;;-0.53;85.51;98127.09;5036468;28;20068;-69
2020/12/03 05:22:11;;;;;;;48.40;17.58;;;;;;;-0.52;85.84;98115.50;5033725;28;20033;-69
2020/12/03 05:24:36;;;;;;;38.97;15.80;;;;;;;-0.54;85.56;98098.88;5052014;28;20036;-70
2020/12/03 05:27:02;;;;;;;43.47;17.75;;;;;;;-0.46;85.40;98111.41;5050162;28;20033;-70
2020/12/03 05:29:27;;;;;;;50.22;17.67;;;;;;;-0.50;86.43;98108.22;5038446;28;20032;-69
2020/12/03 05:31:53;;;;;;;45.03;17.55;;;;;;;-0.47;86.73;98112.41;5032466;28;20025;-69
2020/12/03 05:34:21;;;;;;;42.88;17.35;;;;;;;-0.52;86.11;98110.19;5024119;28;20029;-70
2020/12/03 05:36:46;;;;;;;49.67;17.98;;;;;;;-0.46;86.02;98103.44;5025919;28;20029;-70
2020/12/03 05:39:13;;;;;;;44.85;17.67;;;;;;;-0.35;85.52;98092.56;5026766;28;20442;-70
2020/12/03 05:41:56;;;;;;;40.95;17.15;;;;;;;-0.26;84.89;98081.03;5022561;28;20033;-71
2020/12/03 05:44:27;;;;;;;46.20;17.95;;;;;;;-0.26;85.33;98086.34;5024659;28;20030;-71
2020/12/03 05:46:54;;;;;;;43.22;16.35;;;;;;;-0.42;85.91;98083.53;5044544;28;20039;-72
2020/12/03 05:49:27;;;;;;;46.30;17.90;;;;;;;-0.39;85.66;98080.59;5026458;28;20120;-71
2020/12/03 05:52:06;;;;;;;45.65;18.13;;;;;;;-0.53;86.33;98057.19;5029262;28;20032;-72
2020/12/03 05:54:32;;;;;;;46.63;17.42;;;;;;;-0.36;86.00;98074.97;5024588;28;20034;-74
2020/12/03 05:56:57;;;;;;;44.08;17.52;;;;;;;-0.36;85.65;98058.19;5030910;28;20033;-72
2020/12/03 05:59:25;;;;;;;41.72;16.13;;;;;;;-0.19;85.01;98048.53;5026842;28;20025;-70
2020/12/03 06:02:16;;;;;;;43.88;18.38;;;;;;;-0.32;84.85;98055.06;5028022;28;20035;-71
2020/12/03 06:04:51;;;;;;;46.88;17.88;;;;;;;-0.31;85.46;98064.72;5026534;28;20018;-74
2020/12/03 06:07:59;;;;;;;41.92;15.10;;;;;;;-0.31;84.74;98064.72;5025340;28;20029;-74
2020/12/03 06:10:58;;;;;;;45.30;17.38;;;;;;;-0.30;85.26;98058.41;5041937;28;20029;-76
2020/12/03 06:13:42;;;;;;;;;;;;;;;-0.27;85.95;98063.41;5023256;28;20029;-73
2020/12/03 06:16:28;;;;;;;46.95;18.08;;;;;;;-0.35;85.38;98054.53;5024783;28;19913;-72
2020/12/03 06:19:09;;;;;;;52.25;18.33;;;;;;;-0.40;85.46;98052.31;5027008;28;20072;-71
2020/12/03 06:21:43;;;;;;;48.88;18.27;;;;;;;-0.49;85.62;98048.78;5033306;28;20037;-72
2020/12/03 06:24:28;;;;;;;45.60;17.77;;;;;;;-0.37;84.77;98054.66;5043477;28;20104;-72
2020/12/03 06:27:08;;;;;;;43.30;17.25;;;;;;;-0.24;84.49;98046.31;5022580;28;20024;-71
2020/12/03 06:29:45;;;;;;;40.35;16.27;;;;;;;-0.20;84.30;98058.31;5028267;28;20034;-72
2020/12/03 06:32:30;;;;;;;51.30;18.48;;;;;;;-0.33;85.69;98055.22;5032406;28;20025;-72
2020/12/03 06:35:13;;;;;;;44.42;17.40;;;;;;;-0.38;85.87;98055.66;5030315;28;20057;-71
2020/12/03 06:37:50;;;;;;;45.13;17.65;;;;;;;-0.30;85.97;98042.44;5016396;28;20033;-72
2020/12/03 06:40:22;;;;;;;43.25;16.98;;;;;;;-0.36;85.71;98048.38;5022370;28;20017;-72
2020/12/03 06:42:54;;;;;;;45.03;16.92;;;;;;;-0.27;85.48;98041.31;5031560;28;20100;-71
2020/12/03 06:45:22;;;;;;;44.40;16.98;;;;;;;-0.28;85.34;98045.78;5027459;28;20064;-72
2020/12/03 06:47:48;;;;;;;42.15;17.35;;;;;;;-0.14;84.29;98036.44;5030701;28;20021;-73
2020/12/03 06:50:59;;;;;;;48.42;19.13;;;;;;;-0.15;83.84;98042.75;5027762;28;20040;-71
2020/12/03 06:53:49;;;;;;;46.20;18.65;;;;;;;-0.22;84.47;98026.56;5029877;28;20037;-71
2020/12/03 06:56:36;;;;;;;42.03;16.20;;;;;;;-0.16;84.19;98032.25;5030539;28;20029;-71
2020/12/03 06:59:26;;;;;;;46.83;16.83;;;;;;;-0.16;84.53;98034.91;5046051;28;20056;-72
2020/12/03 07:02:26;;;;;;;44.53;16.27;;;;;;;-0.24;84.21;98017.94;5024910;28;20034;-70
2020/12/03 07:05:19;;;;;;;37.03;15.32;;;;;;;-0.25;84.39;98024.22;5039954;28;20614;-72
2020/12/03 07:08:15;;;;;;;43.47;14.98;;;;;;;-0.20;84.13;98021.09;5035943;28;20479;-69
2020/12/03 07:11:25;;;;;;;35.13;14.63;;;;;;;-0.20;84.16;98022.94;5030544;28;20030;-61
2020/12/03 07:14:24;;;;;;;41.15;14.93;;;;;;;-0.15;84.01;98023.31;4994038;28;20087;-71
2020/12/03 07:17:11;;;;;;;38.22;15.30;;;;;;;-0.24;84.26;98015.28;5035794;28;20100;-71
2020/12/03 07:20:06;;;;;;;40.53;15.70;;;;;;;-0.22;84.68;98010.63;5036074;28;20049;-73
2020/12/03 07:22:42;;;;;;;39.30;16.55;;;;;;;-0.17;84.13;97999.53;5035337;28;20379;-71
2020/12/03 07:25:08;;;;;;;42.33;15.82;;;;;;;-0.14;83.51;98003.69;5031449;28;20060;-75
2020/12/03 07:27:52;;;;;;;45.65;15.80;;;;;;;-0.05;83.07;98002.78;5033957;28;20037;-71
2020/12/03 07:30:30;;;;;;;40.70;15.35;;;;;;;-0.03;83.24;98011.41;5035159;28;20029;-68
2020/12/03 07:33:02;;;;;;;41.05;14.95;;;;;;;-0.17;83.17;97986.22;5028016;28;20038;-69
2020/12/03 07:35:30;;;;;;;41.92;16.30;;;;;;;-0.08;83.59;98014.56;5026070;28;20034;-69
2020/12/03 07:38:32;;;;;;;38.08;15.38;;;;;;;0.05;82.86;98010.63;5025337;28;20025;-69
2020/12/03 07:40:59;;;;;;;34.75;14.95;;;;;;;0.03;82.73;98000.16;5030714;28;20028;-74
2020/12/03 07:43:29;;;;;;;38.03;14.98;;;;;;;0.13;82.89;98000.91;5036456;28;20561;-75
2020/12/03 07:45:55;;;;;;;34.45;14.80;;;;;;;0.22;82.11;97999.94;5029518;28;20037;-71
2020/12/03 07:48:32;;;;;;;35.53;15.18;;;;;;;0.31;82.38;97999.97;5033784;28;20029;-70
2020/12/03 07:51:30;;;;;;;41.78;14.00;;;;;;;0.32;81.78;97991.03;5020364;28;20043;-71
2020/12/03 07:54:17;;;;;;;31.58;13.68;;;;;;;0.42;81.80;97995.25;5001448;28;20045;-70
2020/12/03 07:56:45;;;;;;;28.90;12.25;;;;;;;0.32;81.14;97985.72;5030835;28;20034;-71
2020/12/03 07:59:22;;;;;;;32.72;12.98;;;;;;;0.35;81.29;97988.88;5035704;28;20034;-70
2020/12/03 08:01:48;;;;;;;30.70;12.32;;;;;;;0.29;81.45;97988.66;5035663;28;20029;-69
2020/12/03 08:04:43;;;;;;;30.58;12.52;;;;;;;0.33;81.12;97985.53;5031218;28;20052;-72
2020/12/03 08:07:11;;;;;;;33.17;12.55;;;;;;;0.41;80.91;97976.75;5024695;28;20487;-70
2020/12/03 08:09:44;;;;;;;29.88;12.68;;;;;;;0.52;80.56;97972.97;5051951;28;20021;-68
2020/12/03 08:12:13;;;;;;;31.08;11.63;;;;;;;0.50;80.14;97962.50;5051358;28;20024;-71
2020/12/03 08:14:53;;;;;;;27.48;11.73;;;;;;;0.48;80.34;97953.84;5051275;28;20025;-70
2020/12/03 08:17:22;;;;;;;34.22;12.98;;;;;;;0.53;79.81;97975.50;5059707;28;20025;-69
2020/12/03 08:20:11;;;;;;;34.03;12.95;;;;;;;0.54;80.05;97969.16;5067573;28;20029;-71
2020/12/03 08:22:43;;;;;;;29.17;12.35;;;;;;;0.57;79.90;97963.50;5056835;28;20025;-68
2020/12/03 08:25:11;;;;;;;35.28;13.82;;;;;;;0.58;79.61;97959.03;5057386;28;20014;-67
2020/12/03 08:27:37;;;;;;;31.90;12.48;;;;;;;0.55;79.80;97954.88;5055000;28;20025;-69
2020/12/03 08:30:04;;;;;;;30.55;12.32;;;;;;;0.69;80.19;97948.09;5053813;28;20048;-71
2020/12/03 08:33:03;;;;;;;28.38;11.70;;;;;;;0.76;79.58;97942.94;5044130;28;20503;-68
2020/12/03 08:35:29;;;;;;;26.48;11.07;;;;;;;0.85;78.68;97913.50;5028293;28;20061;-74
2020/12/03 08:37:56;;;;;;;24.48;10.35;;;;;;;1.08;77.62;97932.38;5029297;28;20026;-75
2020/12/03 08:40:21;;;;;;;23.58;9.90;;;;;;;1.11;76.48;97904.56;5014867;28;20014;-75
2020/12/03 08:42:53;;;;;;;22.33;9.10;;;;;;;1.23;76.78;97927.22;5041466;28;20051;-74
2020/12/03 08:45:18;;;;;;;21.90;9.05;;;;;;;1.31;76.37;97908.56;5029798;28;20041;-72
2020/12/03 08:47:50;;;;;;;18.50;8.75;;;;;;;1.35;75.93;97893.06;5030939;28;20034;-74
2020/12/03 08:50:16;;;;;;;21.88;9.82;;;;;;;1.64;75.64;97918.38;5043921;28;20033;-73
2020/12/03 08:52:42;;;;;;;26.80;11.40;;;;;;;1.67;75.75;97915.38;5049516;28;20029;-74
2020/12/03 08:55:09;;;;;;;25.20;11.00;;;;;;;1.69;75.58;97903.53;5028556;28;20080;-73
2020/12/03 08:57:40;;;;;;;26.25;11.85;;;;;;;1.61;76.19;97900.06;5028884;28;20668;-75
2020/12/03 09:00:08;;;;;;;26.15;10.93;;;;;;;1.51;75.99;97873.56;5047942;28;20029;-75
2020/12/03 09:02:34;;;;;;;24.17;10.27;;;;;;;1.87;75.52;97903.34;5054462;28;20087;-71
2020/12/03 09:05:00;;;;;;;26.17;10.10;;;;;;;2.07;74.62;97882.44;5039277;28;20025;-68
2020/12/03 09:07:31;;;;;;;22.27;9.88;;;;;;;2.09;73.82;97880.41;5030010;28;20029;-70
2020/12/03 09:09:59;;;;;;;20.08;9.75;;;;;;;2.10;74.09;97881.28;5023691;28;20022;-69
2020/12/03 09:12:28;;;;;;;26.48;10.93;;;;;;;2.25;73.91;97878.69;5028395;28;20041;-68
2020/12/03 09:14:56;;;;;;;20.35;9.10;;;;;;;2.29;73.21;97872.84;5026961;28;20534;-67
2020/12/03 09:17:23;;;;;;;22.30;10.20;;;;;;;2.20;73.36;97871.19;5030296;28;20024;-68
2020/12/03 09:19:49;;;;;;;23.05;9.93;;;;;;;2.08;74.29;97870.75;5031176;28;20026;-68
2020/12/03 09:22:15;;;;;;;22.88;9.82;;;;;;;1.99;74.17;97871.78;5029356;28;20159;-70
2020/12/03 09:24:41;;;;;;;22.05;9.38;;;;;;;1.79;74.95;97843.88;5020239;28;20125;-68
2020/12/03 09:27:08;;;;;;;24.42;9.88;;;;;;;1.83;75.34;97867.31;5026468;28;20580;-69
2020/12/03 09:29:34;;;;;;;20.95;9.02;;;;;;;1.88;74.24;97861.47;5034277;28;20026;-69
2020/12/03 09:32:06;;;;;;;24.77;10.18;;;;;;;2.08;74.06;97848.59;5029691;28;20096;-69
2020/12/03 09:34:36;;;;;;;19.98;8.95;;;;;;;2.25;73.61;97857.34;5031018;28;20483;-69
2020/12/03 09:37:03;;;;;;;19.23;9.07;;;;;;;2.27;73.69;97856.16;5039888;28;20025;-68
2020/12/03 09:39:31;;;;;;;22.25;9.48;;;;;;;2.26;73.91;97856.34;5023043;28;20029;-66
2020/12/03 09:41:57;;;;;;;22.40;9.80;;;;;;;2.28;73.80;97832.97;5036383;28;20036;-69
2020/12/03 09:44:23;;;;;;;23.20;8.50;;;;;;;2.38;72.88;97829.09;5027091;28;20028;-73
2020/12/03 09:46:51;;;;;;;17.58;9.00;;;;;;;2.48;72.23;97828.84;5022251;28;20025;-71
2020/12/03 09:49:17;;;;;;;18.75;8.98;;;;;;;2.66;72.07;97830.44;5043186;28;20033;-69
2020/12/03 09:51:43;;;;;;;24.77;8.45;;;;;;;2.70;71.75;97832.59;5030382;28;20479;-73
2020/12/03 09:54:10;;;;;;;20.40;9.00;;;;;;;2.88;71.20;97828.75;5029820;28;20034;-68
2020/12/03 09:56:37;;;;;;;17.27;8.52;;;;;;;2.96;70.68;97805.50;5030534;28;20492;-70
2020/12/03 09:59:03;;;;;;;15.65;7.00;;;;;;;3.19;70.52;97801.97;5029615;28;20051;-71
2020/12/03 10:01:41;;;;;;;18.95;8.50;;;;;;;3.33;69.94;97816.34;5031660;28;20033;-70
2020/12/03 10:04:39;;;;;;;18.52;8.02;;;;;;;3.24;70.33;97800.41;5017686;28;20064;-72
2020/12/03 10:07:16;;;;;;;16.85;8.27;;;;;;;3.51;69.05;97801.66;5022341;28;20101;-71
2020/12/03 10:10:09;;;;;;;18.88;9.65;;;;;;;3.81;68.61;97800.81;5032987;28;20036;-72
2020/12/03 10:13:01;;;;;;;19.27;8.10;;;;;;;3.68;68.94;97783.56;5036210;28;20128;-71
2020/12/03 10:15:48;;;;;;;16.50;8.32;;;;;;;3.77;68.39;97776.28;5028676;28;20033;-71
2020/12/03 10:18:20;;;;;;;16.73;8.75;;;;;;;4.02;68.23;97776.00;5025186;28;20390;-70
2020/12/03 10:20:51;;;;;;;18.63;8.30;;;;;;;4.13;67.12;97764.78;5033084;28;20057;-72
2020/12/03 10:23:35;;;;;;;19.75;9.25;;;;;;;4.30;66.84;97771.59;5024733;28;20475;-72
2020/12/03 10:26:17;;;;;;;20.40;8.50;;;;;;;4.25;66.14;97773.19;5031434;28;20026;-71
2020/12/03 10:28:49;;;;;;;18.58;8.45;;;;;;;4.21;66.69;97766.53;5019627;28;20030;-71
2020/12/03 10:31:16;;;;;;;17.13;8.20;;;;;;;4.07;66.34;97747.66;5027641;28;20454;-71
2020/12/03 10:33:50;;;;;;;18.67;8.98;;;;;;;3.95;67.09;97730.41;5012246;28;20022;-72
2020/12/03 10:36:26;;;;;;;16.75;8.35;;;;;;;3.89;66.83;97725.81;5041803;28;20026;-73
2020/12/03 10:38:53;;;;;;;16.05;8.20;;;;;;;4.17;66.75;97724.09;5150143;22;20128;-71
2020/12/03 10:41:18;;;;;;;15.82;7.55;;;;;;;4.46;66.27;97722.31;5030696;28;20068;-77
2020/12/03 10:43:49;;;;;;;16.05;8.27;;;;;;;4.44;65.84;97707.47;5033092;28;20421;-76
2020/12/03 10:46:22;;;;;;;19.50;8.02;;;;;;;4.50;64.97;97709.38;5038838;28;20398;-73
2020/12/03 10:48:49;;;;;;;14.68;7.28;;;;;;;4.63;64.50;97720.19;5027823;28;20092;-74
2020/12/03 10:51:17;;;;;;;14.00;7.30;;;;;;;4.85;64.21;97710.31;5030507;28;20064;-72
2020/12/03 10:53:46;;;;;;;12.95;7.22;;;;;;;5.04;63.56;97720.34;5021760;28;20021;-73
2020/12/03 10:56:15;;;;;;;14.45;7.22;;;;;;;4.64;64.11;97732.59;5026726;28;20398;-73
2020/12/03 10:58:59;;;;;;;15.82;7.65;;;;;;;4.26;64.91;97724.78;5024102;28;20495;-73
2020/12/03 11:01:28;;;;;;;12.48;6.85;;;;;;;4.05;65.62;97728.25;5024199;28;20037;-71
2020/12/03 11:03:56;;;;;;;13.30;7.30;;;;;;;3.90;65.90;97722.09;5018810;28;20028;-76
2020/12/03 11:06:27;;;;;;;14.57;7.25;;;;;;;3.97;66.05;97728.38;5023245;28;20529;-73
2020/12/03 11:08:53;;;;;;;15.57;7.80;;;;;;;3.90;66.54;97730.13;5027365;28;20028;-76
2020/12/03 11:11:19;;;;;;;15.35;7.60;;;;;;;3.70;65.78;97717.34;5032477;28;20482;-74
2020/12/03 11:13:44;;;;;;;13.65;7.20;;;;;;;3.73;66.98;97703.59;5031476;28;20072;-75
2020/12/03 11:16:11;;;;;;;14.13;7.55;;;;;;;3.72;66.80;97704.63;5027444;28;20033;-75
2020/12/03 11:18:46;;;;;;;14.82;7.68;;;;;;;3.55;67.40;97686.28;5023776;28;20037;-72
2020/12/03 11:21:32;;;;;;;12.32;6.68;;;;;;;3.81;66.06;97683.13;5027702;28;20121;-72
2020/12/03 11:24:33;;;;;;;15.65;7.03;;;;;;;3.59;66.54;97688.41;5014149;28;20090;-74
2020/12/03 11:27:01;;;;;;;12.25;6.68;;;;;;;3.50;67.59;97668.13;5021055;28;20060;-74
2020/12/03 11:29:27;;;;;;;13.95;6.80;;;;;;;3.39;66.79;97668.59;5029294;28;20056;-77
2020/12/03 11:31:56;;;;;;;13.25;6.68;;;;;;;3.36;67.65;97683.16;5023930;28;20491;-77
2020/12/03 11:34:34;;;;;;;12.05;6.60;;;;;;;3.33;67.71;97672.00;5031233;28;20022;-77
2020/12/03 11:36:59;;;;;;;16.83;7.50;;;;;;;3.06;67.14;97651.09;5016062;28;20475;-76
2020/12/03 11:39:28;;;;;;;13.68;7.30;;;;;;;3.31;66.79;97668.69;5025439;28;20025;-75
2020/12/03 11:42:15;;;;;;;13.63;6.72;;;;;;;3.34;66.92;97647.78;5012916;28;20033;-76